createdAt,value
2022-10-24T00:00:21.660Z,22
2022-10-24T00:01:21.603Z,22
2022-10-24T00:02:21.625Z,22
2022-10-24T00:03:21.615Z,22
2022-10-24T00:04:21.606Z,22
2022-10-24T00:05:21.581Z,22
2022-10-24T00:06:21.638Z,22
2022-10-24T00:07:21.586Z,22
2022-10-24T00:08:21.574Z,22
2022-10-24T00:09:21.580Z,22
2022-10-24T00:10:21.583Z,22
2022-10-24T00:11:21.626Z,22
2022-10-24T00:13:21.620Z,22
2022-10-24T00:14:21.685Z,22
2022-10-24T00:15:21.589Z,22
2022-10-24T00:16:21.624Z,22
2022-10-24T00:17:21.595Z,22
2022-10-24T00:18:21.586Z,22
2022-10-24T00:19:21.626Z,22
2022-10-24T00:20:21.582Z,22
2022-10-24T00:21:21.612Z,22
2022-10-24T00:22:21.618Z,22
2022-10-24T00:23:21.597Z,22
2022-10-24T00:24:21.590Z,22
2022-10-24T00:25:21.607Z,22
2022-10-24T00:26:21.618Z,22
2022-10-24T00:27:21.611Z,22
2022-10-24T00:28:21.633Z,22
2022-10-24T00:29:21.629Z,22
2022-10-24T00:30:21.613Z,22
2022-10-24T00:31:21.622Z,22
2022-10-24T00:32:21.603Z,22
2022-10-24T00:33:21.635Z,22
2022-10-24T00:34:21.624Z,22
2022-10-24T00:35:21.663Z,22
2022-10-24T00:36:21.636Z,45
2022-10-24T00:37:21.658Z,45
2022-10-24T00:38:21.638Z,45
2022-10-24T00:39:21.619Z,45
2022-10-24T00:40:21.611Z,45
2022-10-24T00:41:21.621Z,45
2022-10-24T00:42:21.635Z,45
2022-10-24T00:43:21.623Z,45
2022-10-24T00:44:21.625Z,45
2022-10-24T00:45:21.637Z,45
2022-10-24T00:46:21.634Z,45
2022-10-24T00:47:21.619Z,45
2022-10-24T00:48:21.612Z,45
2022-10-24T00:49:21.628Z,45
2022-10-24T00:50:21.624Z,45
2022-10-24T00:51:21.659Z,45
2022-10-24T00:52:21.623Z,45
2022-10-24T00:53:21.634Z,45
2022-10-24T00:54:21.606Z,45
2022-10-24T00:55:21.619Z,45
2022-10-24T00:56:21.645Z,45
2022-10-24T00:57:21.624Z,45
2022-10-24T00:58:21.616Z,45
2022-10-24T00:59:21.617Z,45
2022-10-24T01:00:21.732Z,68
2022-10-24T01:01:21.766Z,68
2022-10-24T01:02:21.627Z,68
2022-10-24T01:03:21.647Z,112
2022-10-24T01:04:21.615Z,135
2022-10-24T01:05:21.632Z,135
2022-10-24T01:06:21.637Z,135
2022-10-24T01:07:21.649Z,135
2022-10-24T01:08:21.634Z,135
2022-10-24T01:09:21.635Z,135
2022-10-24T01:10:21.642Z,135
2022-10-24T01:11:21.649Z,135
2022-10-24T01:12:21.624Z,135
2022-10-24T01:13:21.626Z,135
2022-10-24T01:14:21.621Z,135
2022-10-24T01:15:21.651Z,135
2022-10-24T01:16:21.650Z,135
2022-10-24T01:17:21.632Z,135
2022-10-24T01:18:21.658Z,135
2022-10-24T01:19:21.628Z,135
2022-10-24T01:20:21.667Z,135
2022-10-24T01:21:21.660Z,135
2022-10-24T01:22:21.632Z,135
2022-10-24T01:23:21.677Z,135
2022-10-24T01:24:21.667Z,135
2022-10-24T01:25:21.658Z,135
2022-10-24T01:26:21.647Z,135
2022-10-24T01:27:21.663Z,135
2022-10-24T01:28:21.628Z,135
2022-10-24T01:29:21.641Z,135
2022-10-24T01:30:21.669Z,135
2022-10-24T01:31:21.641Z,135
2022-10-24T01:32:21.648Z,135
2022-10-24T01:33:21.655Z,135
2022-10-24T01:34:21.652Z,135
2022-10-24T01:35:21.766Z,158
2022-10-24T01:36:21.665Z,135
2022-10-24T01:37:21.668Z,22
2022-10-24T01:38:21.667Z,22
2022-10-24T01:39:21.686Z,22
2022-10-24T01:40:21.659Z,22
2022-10-24T01:41:21.689Z,22
2022-10-24T01:42:21.654Z,22
2022-10-24T01:43:21.659Z,22
2022-10-24T01:44:21.663Z,22
2022-10-24T01:45:21.650Z,22
2022-10-24T01:46:21.663Z,22
2022-10-24T01:47:21.702Z,22
2022-10-24T01:48:21.681Z,22
2022-10-24T01:49:21.666Z,22
2022-10-24T01:50:21.661Z,22
2022-10-24T01:51:21.680Z,22
2022-10-24T01:52:21.671Z,22
2022-10-24T01:53:23.931Z,22
2022-10-24T01:54:21.677Z,22
2022-10-24T01:55:21.704Z,22
2022-10-24T01:56:21.689Z,22
2022-10-24T01:57:21.684Z,22
2022-10-24T01:58:21.674Z,22
2022-10-24T01:59:21.673Z,22
2022-10-24T02:00:21.681Z,22
2022-10-24T02:01:21.710Z,22
2022-10-24T02:02:21.671Z,22
2022-10-24T02:03:21.666Z,22
2022-10-24T02:04:21.668Z,22
2022-10-24T02:05:21.666Z,22
2022-10-24T02:06:21.682Z,22
2022-10-24T02:07:21.689Z,22
2022-10-24T02:08:21.670Z,22
2022-10-24T02:09:21.681Z,22
2022-10-24T02:10:21.718Z,22
2022-10-24T02:11:21.714Z,22
2022-10-24T02:12:21.669Z,22
2022-10-24T02:13:21.684Z,22
2022-10-24T02:14:21.691Z,22
2022-10-24T02:15:21.685Z,22
2022-10-24T02:16:21.690Z,22
2022-10-24T02:17:21.722Z,22
2022-10-24T02:18:21.694Z,22
2022-10-24T02:19:21.822Z,22
2022-10-24T02:20:21.700Z,22
2022-10-24T02:21:21.705Z,22
2022-10-24T02:22:21.688Z,22
2022-10-24T02:23:21.673Z,22
2022-10-24T02:24:21.712Z,22
2022-10-24T02:25:21.693Z,22
2022-10-24T02:26:21.699Z,22
2022-10-24T02:27:21.710Z,22
2022-10-24T02:28:21.694Z,22
2022-10-24T02:29:21.674Z,22
2022-10-24T02:30:21.680Z,22
2022-10-24T02:31:21.701Z,68
2022-10-24T02:32:21.681Z,68
2022-10-24T02:33:21.682Z,135
2022-10-24T02:34:21.685Z,135
2022-10-24T02:35:21.718Z,158
2022-10-24T02:36:21.689Z,158
2022-10-24T02:37:21.680Z,158
2022-10-24T02:38:21.743Z,158
2022-10-24T02:39:21.688Z,158
2022-10-24T02:40:21.688Z,158
2022-10-24T02:41:21.686Z,158
2022-10-24T02:42:21.743Z,158
2022-10-24T02:43:21.863Z,158
2022-10-24T02:44:21.689Z,158
2022-10-24T02:45:21.695Z,158
2022-10-24T02:46:21.704Z,158
2022-10-24T02:47:21.706Z,158
2022-10-24T02:48:21.718Z,158
2022-10-24T02:49:21.695Z,158
2022-10-24T02:50:21.712Z,158
2022-10-24T02:51:21.707Z,158
2022-10-24T02:52:21.697Z,135
2022-10-24T02:53:21.750Z,135
2022-10-24T02:54:21.708Z,135
2022-10-24T02:55:21.698Z,135
2022-10-24T02:56:21.837Z,135
2022-10-24T02:57:21.695Z,135
2022-10-24T02:58:21.715Z,135
2022-10-24T02:59:21.730Z,135
2022-10-24T03:00:21.732Z,135
2022-10-24T03:01:21.829Z,135
2022-10-24T03:02:21.742Z,135
2022-10-24T03:03:21.700Z,135
2022-10-24T03:04:21.728Z,135
2022-10-24T03:05:21.699Z,135
2022-10-24T03:06:21.708Z,135
2022-10-24T03:07:21.753Z,135
2022-10-24T03:08:21.724Z,135
2022-10-24T03:09:21.707Z,135
2022-10-24T03:10:21.714Z,135
2022-10-24T03:11:21.726Z,135
2022-10-24T03:12:21.733Z,135
2022-10-24T03:13:21.706Z,135
2022-10-24T03:14:21.706Z,135
2022-10-24T03:15:21.737Z,135
2022-10-24T03:16:21.723Z,135
2022-10-24T03:17:21.713Z,135
2022-10-24T03:18:21.709Z,135
2022-10-24T03:19:21.708Z,135
2022-10-24T03:20:21.702Z,135
2022-10-24T03:21:21.717Z,135
2022-10-24T03:22:21.709Z,135
2022-10-24T03:23:21.712Z,135
2022-10-24T03:24:26.689Z,135
2022-10-24T03:25:21.724Z,135
2022-10-24T03:26:21.752Z,135
2022-10-24T03:27:21.746Z,135
2022-10-24T03:28:21.708Z,135
2022-10-24T03:29:21.718Z,135
2022-10-24T03:30:21.716Z,135
2022-10-24T03:31:21.747Z,135
2022-10-24T03:32:21.784Z,135
2022-10-24T03:33:21.735Z,135
2022-10-24T03:34:21.731Z,135
2022-10-24T03:35:21.720Z,135
2022-10-24T03:36:21.725Z,135
2022-10-24T03:37:21.725Z,135
2022-10-24T03:38:21.752Z,135
2022-10-24T03:39:21.719Z,135
2022-10-24T03:40:21.725Z,135
2022-10-24T03:41:21.751Z,135
2022-10-24T03:42:21.736Z,135
2022-10-24T03:43:21.720Z,135
2022-10-24T03:44:21.736Z,135
2022-10-24T03:45:21.742Z,135
2022-10-24T03:46:21.744Z,135
2022-10-24T03:47:21.757Z,135
2022-10-24T03:48:21.725Z,135
2022-10-24T03:49:21.745Z,135
2022-10-24T03:50:21.732Z,135
2022-10-24T03:51:21.735Z,135
2022-10-24T03:52:21.733Z,135
2022-10-24T03:53:21.725Z,135
2022-10-24T03:54:21.738Z,135
2022-10-24T03:55:21.743Z,135
2022-10-24T03:56:21.756Z,135
2022-10-24T03:58:21.734Z,135
2022-10-24T03:59:21.737Z,135
2022-10-24T04:00:21.780Z,135
2022-10-24T04:01:21.865Z,135
2022-10-24T04:02:21.758Z,135
2022-10-24T04:03:21.784Z,135
2022-10-24T04:04:21.743Z,135
2022-10-24T04:05:21.770Z,135
2022-10-24T04:06:21.755Z,135
2022-10-24T04:07:21.744Z,135
2022-10-24T04:08:21.750Z,135
2022-10-24T04:09:21.748Z,135
2022-10-24T04:10:21.769Z,135
2022-10-24T04:11:21.768Z,135
2022-10-24T04:12:21.784Z,135
2022-10-24T04:13:21.738Z,135
2022-10-24T04:14:21.741Z,135
2022-10-24T04:15:21.764Z,135
2022-10-24T04:16:21.796Z,135
2022-10-24T04:17:21.758Z,135
2022-10-24T04:18:21.769Z,135
2022-10-24T04:19:21.790Z,135
2022-10-24T04:20:21.765Z,135
2022-10-24T04:21:22.114Z,135
2022-10-24T04:22:21.816Z,135
2022-10-24T04:23:21.776Z,135
2022-10-24T04:24:21.793Z,135
2022-10-24T04:25:21.756Z,135
2022-10-24T04:26:21.784Z,135
2022-10-24T04:27:21.772Z,180
2022-10-24T04:28:21.777Z,180
2022-10-24T04:29:21.776Z,180
2022-10-24T04:30:21.778Z,180
2022-10-24T04:31:23.399Z,180
2022-10-24T04:32:21.779Z,180
2022-10-24T04:33:21.773Z,180
2022-10-24T04:34:21.775Z,180
2022-10-24T04:35:21.780Z,180
2022-10-24T04:36:21.767Z,180
2022-10-24T04:37:21.786Z,180
2022-10-24T04:38:21.768Z,180
2022-10-24T04:39:21.778Z,180
2022-10-24T04:40:21.792Z,180
2022-10-24T04:41:21.784Z,180
2022-10-24T04:42:21.792Z,180
2022-10-24T04:43:21.780Z,180
2022-10-24T04:44:21.770Z,180
2022-10-24T04:45:21.775Z,180
2022-10-24T04:46:21.793Z,135
2022-10-24T04:47:21.823Z,135
2022-10-24T04:48:21.777Z,135
2022-10-24T04:49:21.792Z,135
2022-10-24T04:50:21.842Z,135
2022-10-24T04:51:22.549Z,135
2022-10-24T04:52:21.793Z,135
2022-10-24T04:53:21.790Z,135
2022-10-24T04:54:21.789Z,135
2022-10-24T04:55:21.800Z,270
2022-10-24T04:56:21.805Z,270
2022-10-24T04:57:21.800Z,270
2022-10-24T04:58:21.803Z,270
2022-10-24T04:59:21.791Z,270
2022-10-24T05:00:21.812Z,270
2022-10-24T05:01:21.871Z,270
2022-10-24T05:02:21.836Z,270
2022-10-24T05:03:21.800Z,270
2022-10-24T05:04:21.805Z,270
2022-10-24T05:05:21.819Z,270
2022-10-24T05:06:21.832Z,270
2022-10-24T05:07:21.832Z,270
2022-10-24T05:08:21.819Z,270
2022-10-24T05:09:21.800Z,45
2022-10-24T05:10:21.837Z,45
2022-10-24T05:11:21.812Z,45
2022-10-24T05:12:21.820Z,45
2022-10-24T05:13:21.837Z,45
2022-10-24T05:14:21.829Z,45
2022-10-24T05:15:21.828Z,45
2022-10-24T05:16:21.813Z,45
2022-10-24T05:17:21.813Z,45
2022-10-24T05:18:21.831Z,45
2022-10-24T05:19:21.807Z,45
2022-10-24T05:20:21.817Z,45
2022-10-24T05:21:21.816Z,45
2022-10-24T05:22:21.806Z,45
2022-10-24T05:23:21.828Z,45
2022-10-24T05:24:21.820Z,45
2022-10-24T05:25:21.831Z,45
2022-10-24T05:26:21.808Z,45
2022-10-24T05:27:21.827Z,45
2022-10-24T05:28:21.811Z,90
2022-10-24T05:29:21.828Z,90
2022-10-24T05:30:21.818Z,90
2022-10-24T05:31:21.904Z,158
2022-10-24T05:32:21.831Z,158
2022-10-24T05:33:21.810Z,158
2022-10-24T05:34:21.824Z,158
2022-10-24T05:35:21.841Z,158
2022-10-24T05:36:21.821Z,158
2022-10-24T05:37:21.851Z,158
2022-10-24T05:38:21.828Z,158
2022-10-24T05:39:21.848Z,158
2022-10-24T05:40:21.833Z,90
2022-10-24T05:41:21.838Z,68
2022-10-24T05:42:21.822Z,68
2022-10-24T05:43:21.823Z,68
2022-10-24T05:44:21.836Z,338
2022-10-24T05:45:21.859Z,338
2022-10-24T05:46:21.872Z,338
2022-10-24T05:47:22.696Z,338
2022-10-24T05:48:21.831Z,338
2022-10-24T05:49:21.840Z,338
2022-10-24T05:50:21.869Z,338
2022-10-24T05:51:21.838Z,338
2022-10-24T05:52:21.835Z,338
2022-10-24T05:53:21.832Z,338
2022-10-24T05:54:21.832Z,338
2022-10-24T05:55:21.872Z,45
2022-10-24T05:56:21.842Z,45
2022-10-24T05:57:21.831Z,45
2022-10-24T05:58:21.847Z,45
2022-10-24T05:59:21.839Z,45
2022-10-24T06:00:21.863Z,45
2022-10-24T06:01:21.892Z,45
2022-10-24T06:02:21.940Z,45
2022-10-24T06:03:21.851Z,0
2022-10-24T06:04:21.854Z,0
2022-10-24T06:05:21.844Z,0
2022-10-24T06:06:21.872Z,0
2022-10-24T06:07:21.854Z,22
2022-10-24T06:08:21.850Z,22
2022-10-24T06:09:21.855Z,315
2022-10-24T06:10:21.860Z,315
2022-10-24T06:12:21.839Z,292
2022-10-24T06:13:21.866Z,292
2022-10-24T06:14:21.843Z,248
2022-10-24T06:15:21.868Z,248
2022-10-24T06:16:21.858Z,270
2022-10-24T06:17:21.859Z,158
2022-10-24T06:18:21.846Z,248
2022-10-24T06:19:21.890Z,112
2022-10-24T06:20:21.854Z,225
2022-10-24T06:21:21.838Z,112
2022-10-24T06:22:21.852Z,158
2022-10-24T06:23:21.858Z,158
2022-10-24T06:24:21.855Z,158
2022-10-24T06:25:22.008Z,135
2022-10-24T06:26:23.257Z,158
2022-10-24T06:27:21.881Z,202
2022-10-24T06:28:21.860Z,180
2022-10-24T06:29:21.866Z,180
2022-10-24T06:30:21.882Z,225
2022-10-24T06:31:21.858Z,158
2022-10-24T06:32:21.848Z,180
2022-10-24T06:33:21.867Z,158
2022-10-24T06:34:21.935Z,158
2022-10-24T06:35:21.868Z,158
2022-10-24T06:36:21.992Z,158
2022-10-24T06:37:21.862Z,158
2022-10-24T06:38:21.857Z,158
2022-10-24T06:39:21.983Z,112
2022-10-24T06:40:21.880Z,135
2022-10-24T06:41:21.876Z,135
2022-10-24T06:42:21.862Z,180
2022-10-24T06:43:21.875Z,180
2022-10-24T06:44:21.859Z,202
2022-10-24T06:45:21.876Z,202
2022-10-24T06:46:21.867Z,158
2022-10-24T06:47:21.869Z,225
2022-10-24T06:48:21.853Z,225
2022-10-24T06:49:21.869Z,225
2022-10-24T06:50:21.900Z,225
2022-10-24T06:51:21.858Z,225
2022-10-24T06:52:21.863Z,180
2022-10-24T06:53:21.934Z,180
2022-10-24T06:54:22.468Z,180
2022-10-24T06:55:21.884Z,180
2022-10-24T06:56:21.875Z,180
2022-10-24T06:57:21.858Z,180
2022-10-24T06:58:21.882Z,180
2022-10-24T06:59:21.915Z,180
2022-10-24T07:00:21.939Z,180
2022-10-24T07:01:22.009Z,180
2022-10-24T07:02:21.982Z,180
2022-10-24T07:03:21.877Z,158
2022-10-24T07:04:21.864Z,158
2022-10-24T07:05:21.884Z,158
2022-10-24T07:07:21.864Z,158
2022-10-24T07:08:21.889Z,158
2022-10-24T07:09:21.889Z,68
2022-10-24T07:10:21.903Z,68
2022-10-24T07:11:21.877Z,68
2022-10-24T07:12:21.922Z,68
2022-10-24T07:13:21.880Z,68
2022-10-24T07:14:21.896Z,68
2022-10-24T07:15:21.939Z,68
2022-10-24T07:16:21.906Z,68
2022-10-24T07:17:21.894Z,68
2022-10-24T07:18:21.901Z,68
2022-10-24T07:19:21.886Z,68
2022-10-24T07:20:22.035Z,68
2022-10-24T07:21:21.883Z,68
2022-10-24T07:22:21.888Z,68
2022-10-24T07:23:21.891Z,158
2022-10-24T07:24:21.902Z,158
2022-10-24T07:25:21.911Z,158
2022-10-24T07:26:21.878Z,158
2022-10-24T07:27:21.923Z,158
2022-10-24T07:28:21.936Z,158
2022-10-24T07:29:21.903Z,158
2022-10-24T07:30:21.912Z,158
2022-10-24T07:31:21.935Z,158
2022-10-24T07:32:21.892Z,158
2022-10-24T07:33:21.896Z,158
2022-10-24T07:34:21.900Z,158
2022-10-24T07:35:21.935Z,158
2022-10-24T07:36:21.906Z,158
2022-10-24T07:37:21.930Z,180
2022-10-24T07:38:21.912Z,158
2022-10-24T07:39:21.901Z,158
2022-10-24T07:40:21.930Z,158
2022-10-24T07:41:21.901Z,158
2022-10-24T07:42:21.912Z,135
2022-10-24T07:43:21.925Z,135
2022-10-24T07:44:21.923Z,135
2022-10-24T07:45:21.923Z,135
2022-10-24T07:46:21.913Z,158
2022-10-24T07:47:21.940Z,158
2022-10-24T07:48:21.910Z,158
2022-10-24T07:49:21.923Z,180
2022-10-24T07:50:21.948Z,180
2022-10-24T07:51:21.922Z,180
2022-10-24T07:52:21.922Z,180
2022-10-24T07:53:21.917Z,180
2022-10-24T07:55:21.943Z,180
2022-10-24T07:56:21.938Z,180
2022-10-24T07:57:21.952Z,158
2022-10-24T07:58:21.925Z,112
2022-10-24T07:59:37.481Z,112
2022-10-24T08:00:21.947Z,112
2022-10-24T08:01:21.975Z,112
2022-10-24T08:02:21.936Z,112
2022-10-24T08:03:21.953Z,112
2022-10-24T08:04:21.930Z,112
2022-10-24T08:05:22.832Z,112
2022-10-24T08:06:21.911Z,112
2022-10-24T08:07:21.938Z,112
2022-10-24T08:08:35.452Z,112
2022-10-24T08:09:21.934Z,112
2022-10-24T08:10:21.979Z,112
2022-10-24T08:11:22.100Z,112
2022-10-24T08:12:21.940Z,202
2022-10-24T08:13:21.924Z,202
2022-10-24T08:14:21.918Z,202
2022-10-24T08:15:21.937Z,202
2022-10-24T08:16:21.944Z,202
2022-10-24T08:17:21.918Z,202
2022-10-24T08:18:21.926Z,202
2022-10-24T08:19:22.220Z,225
2022-10-24T08:20:22.054Z,225
2022-10-24T08:21:21.935Z,225
2022-10-24T08:22:21.937Z,225
2022-10-24T08:23:24.616Z,158
2022-10-24T08:24:21.926Z,135
2022-10-24T08:25:21.958Z,135
2022-10-24T08:26:21.944Z,135
2022-10-24T08:27:21.961Z,135
2022-10-24T08:28:21.928Z,90
2022-10-24T08:29:21.949Z,68
2022-10-24T08:30:22.023Z,68
2022-10-24T08:31:21.943Z,68
2022-10-24T08:32:21.923Z,45
2022-10-24T08:33:21.934Z,45
2022-10-24T08:34:21.932Z,338
2022-10-24T08:35:21.983Z,338
2022-10-24T08:36:21.933Z,338
2022-10-24T08:37:21.966Z,338
2022-10-24T08:38:21.927Z,338
2022-10-24T08:39:21.946Z,338
2022-10-24T08:40:22.014Z,338
2022-10-24T08:41:21.944Z,338
2022-10-24T08:42:21.935Z,338
2022-10-24T08:43:21.977Z,338
2022-10-24T08:44:21.938Z,338
2022-10-24T08:45:21.948Z,338
2022-10-24T08:46:21.947Z,338
2022-10-24T08:47:22.001Z,338
2022-10-24T08:48:21.957Z,338
2022-10-24T08:49:21.946Z,338
2022-10-24T08:50:21.957Z,338
2022-10-24T08:51:22.033Z,338
2022-10-24T08:52:21.933Z,338
2022-10-24T08:53:21.997Z,338
2022-10-24T08:54:21.963Z,338
2022-10-24T08:55:31.148Z,338
2022-10-24T08:56:21.954Z,338
2022-10-24T08:57:21.993Z,338
2022-10-24T08:58:21.941Z,338
2022-10-24T08:59:21.949Z,338
2022-10-24T09:00:21.975Z,338
2022-10-24T09:01:22.068Z,338
2022-10-24T09:02:22.016Z,338
2022-10-24T09:03:31.350Z,338
2022-10-24T09:04:21.987Z,338
2022-10-24T09:05:21.980Z,158
2022-10-24T09:06:21.957Z,225
2022-10-24T09:07:22.064Z,225
2022-10-24T09:08:23.069Z,225
2022-10-24T09:09:21.969Z,225
2022-10-24T09:10:22.034Z,225
2022-10-24T09:11:21.985Z,225
2022-10-24T09:12:22.012Z,292
2022-10-24T09:13:21.979Z,292
2022-10-24T09:14:21.996Z,292
2022-10-24T09:15:21.982Z,292
2022-10-24T09:16:21.989Z,292
2022-10-24T09:17:22.146Z,292
2022-10-24T09:18:22.125Z,292
2022-10-24T09:19:21.966Z,292
2022-10-24T09:20:21.978Z,292
2022-10-24T09:21:21.989Z,292
2022-10-24T09:22:21.997Z,292
2022-10-24T09:23:22.012Z,292
2022-10-24T09:24:21.974Z,292
2022-10-24T09:25:21.980Z,292
2022-10-24T09:26:21.995Z,292
2022-10-24T09:28:22.009Z,292
2022-10-24T09:29:22.007Z,292
2022-10-24T09:30:21.996Z,292
2022-10-24T09:31:21.988Z,292
2022-10-24T09:32:21.982Z,292
2022-10-24T09:33:21.981Z,292
2022-10-24T09:34:22.135Z,292
2022-10-24T09:35:22.006Z,292
2022-10-24T09:36:22.037Z,292
2022-10-24T09:37:22.037Z,292
2022-10-24T09:38:21.981Z,292
2022-10-24T09:39:22.002Z,292
2022-10-24T09:40:22.003Z,292
2022-10-24T09:41:21.989Z,292
2022-10-24T09:42:22.007Z,292
2022-10-24T09:43:22.012Z,292
2022-10-24T09:44:21.981Z,292
2022-10-24T09:45:21.989Z,292
2022-10-24T09:46:21.989Z,158
2022-10-24T09:47:22.013Z,158
2022-10-24T09:48:24.624Z,158
2022-10-24T09:49:21.983Z,158
2022-10-24T09:50:22.023Z,158
2022-10-24T09:51:22.002Z,158
2022-10-24T09:52:21.987Z,158
2022-10-24T09:53:22.015Z,158
2022-10-24T09:54:21.997Z,158
2022-10-24T09:55:22.051Z,180
2022-10-24T09:56:21.999Z,180
2022-10-24T09:57:22.028Z,180
2022-10-24T09:58:21.990Z,180
2022-10-24T09:59:21.991Z,180
2022-10-24T10:00:22.005Z,202
2022-10-24T10:01:22.145Z,202
2022-10-24T10:02:22.181Z,202
2022-10-24T10:03:23.824Z,202
2022-10-24T10:04:22.009Z,180
2022-10-24T10:05:22.013Z,180
2022-10-24T10:06:22.027Z,180
2022-10-24T10:07:22.012Z,180
2022-10-24T10:08:22.035Z,180
2022-10-24T10:09:22.040Z,180
2022-10-24T10:10:22.035Z,180
2022-10-24T10:11:22.038Z,202
2022-10-24T10:12:21.999Z,202
2022-10-24T10:13:22.010Z,180
2022-10-24T10:14:22.009Z,180
2022-10-24T10:15:22.003Z,180
2022-10-24T10:16:22.007Z,180
2022-10-24T10:17:22.006Z,180
2022-10-24T10:18:22.006Z,180
2022-10-24T10:19:22.172Z,180
2022-10-24T10:20:22.051Z,180
2022-10-24T10:21:22.030Z,180
2022-10-24T10:22:22.040Z,180
2022-10-24T10:23:22.002Z,180
2022-10-24T10:24:22.006Z,180
2022-10-24T10:25:22.030Z,180
2022-10-24T10:26:22.024Z,180
2022-10-24T10:27:22.021Z,180
2022-10-24T10:28:22.026Z,180
2022-10-24T10:29:22.003Z,180
2022-10-24T10:30:22.018Z,180
2022-10-24T10:31:22.007Z,180
2022-10-24T10:32:22.013Z,180
2022-10-24T10:33:22.024Z,180
2022-10-24T10:34:22.043Z,180
2022-10-24T10:35:22.012Z,180
2022-10-24T10:36:22.039Z,180
2022-10-24T10:37:22.019Z,180
2022-10-24T10:38:22.013Z,180
2022-10-24T10:39:22.007Z,180
2022-10-24T10:40:22.037Z,180
2022-10-24T10:41:22.047Z,180
2022-10-24T10:42:22.006Z,180
2022-10-24T10:43:22.039Z,180
2022-10-24T10:44:22.042Z,135
2022-10-24T10:45:22.028Z,135
2022-10-24T10:46:22.038Z,135
2022-10-24T10:47:22.731Z,112
2022-10-24T10:48:22.013Z,135
2022-10-24T10:49:22.019Z,158
2022-10-24T10:50:22.108Z,158
2022-10-24T10:51:22.090Z,158
2022-10-24T10:52:22.051Z,158
2022-10-24T10:53:22.025Z,158
2022-10-24T10:54:22.032Z,158
2022-10-24T10:55:22.041Z,158
2022-10-24T10:56:22.031Z,158
2022-10-24T10:57:22.028Z,158
2022-10-24T10:58:22.027Z,158
2022-10-24T10:59:23.509Z,135
2022-10-24T11:00:22.049Z,135
2022-10-24T11:01:22.151Z,112
2022-10-24T11:02:22.163Z,158
2022-10-24T11:03:22.055Z,135
2022-10-24T11:04:22.044Z,135
2022-10-24T11:05:22.059Z,158
2022-10-24T11:06:22.039Z,158
2022-10-24T11:07:22.034Z,135
2022-10-24T11:08:22.029Z,135
2022-10-24T11:09:22.056Z,180
2022-10-24T11:10:22.045Z,180
2022-10-24T11:11:22.038Z,180
2022-10-24T11:12:22.048Z,158
2022-10-24T11:13:22.050Z,180
2022-10-24T11:14:22.045Z,135
2022-10-24T11:15:22.274Z,158
2022-10-24T11:16:22.143Z,158
2022-10-24T11:17:22.071Z,158
2022-10-24T11:18:22.044Z,158
2022-10-24T11:19:22.045Z,180
2022-10-24T11:20:22.063Z,158
2022-10-24T11:21:22.047Z,158
2022-10-24T11:22:22.204Z,158
2022-10-24T11:23:22.057Z,158
2022-10-24T11:24:22.067Z,180
2022-10-24T11:25:22.070Z,180
2022-10-24T11:26:22.052Z,158
2022-10-24T11:27:22.045Z,135
2022-10-24T11:28:22.057Z,135
2022-10-24T11:29:22.054Z,135
2022-10-24T11:30:22.059Z,135
2022-10-24T11:31:22.074Z,135
2022-10-24T11:32:22.076Z,135
2022-10-24T11:33:22.094Z,135
2022-10-24T11:34:22.060Z,135
2022-10-24T11:35:22.100Z,158
2022-10-24T11:36:22.064Z,180
2022-10-24T11:37:22.052Z,180
2022-10-24T11:38:22.065Z,158
2022-10-24T11:39:22.078Z,158
2022-10-24T11:40:22.154Z,202
2022-10-24T11:41:22.065Z,158
2022-10-24T11:42:22.051Z,158
2022-10-24T11:43:22.078Z,158
2022-10-24T11:44:22.061Z,158
2022-10-24T11:45:22.083Z,158
2022-10-24T11:46:22.052Z,158
2022-10-24T11:47:22.083Z,158
2022-10-24T11:48:22.061Z,158
2022-10-24T11:49:22.143Z,158
2022-10-24T11:50:24.679Z,158
2022-10-24T11:51:22.097Z,158
2022-10-24T11:52:22.067Z,158
2022-10-24T11:53:22.088Z,158
2022-10-24T11:54:22.063Z,158
2022-10-24T11:55:22.067Z,158
2022-10-24T11:56:23.542Z,158
2022-10-24T11:57:22.064Z,180
2022-10-24T11:58:22.064Z,202
2022-10-24T11:59:22.075Z,158
2022-10-24T12:00:22.070Z,180
2022-10-24T12:01:22.124Z,180
2022-10-24T12:02:22.185Z,158
2022-10-24T12:03:22.085Z,158
2022-10-24T12:04:22.089Z,202
2022-10-24T12:05:22.087Z,158
2022-10-24T12:06:22.060Z,158
2022-10-24T12:07:22.072Z,158
2022-10-24T12:08:22.078Z,135
2022-10-24T12:09:22.084Z,158
2022-10-24T12:10:22.090Z,135
2022-10-24T12:11:22.088Z,158
2022-10-24T12:12:22.077Z,180
2022-10-24T12:13:22.082Z,202
2022-10-24T12:14:22.089Z,135
2022-10-24T12:15:22.267Z,180
2022-10-24T12:16:22.073Z,158
2022-10-24T12:17:22.077Z,180
2022-10-24T12:18:22.073Z,158
2022-10-24T12:19:22.103Z,202
2022-10-24T12:20:22.079Z,225
2022-10-24T12:21:25.649Z,158
2022-10-24T12:22:22.179Z,202
2022-10-24T12:23:22.080Z,202
2022-10-24T12:24:22.088Z,202
2022-10-24T12:25:22.097Z,158
2022-10-24T12:26:22.070Z,180
2022-10-24T12:27:22.087Z,158
2022-10-24T12:28:22.083Z,180
2022-10-24T12:29:22.086Z,180
2022-10-24T12:30:22.115Z,180
2022-10-24T12:31:23.803Z,180
2022-10-24T12:32:22.084Z,202
2022-10-24T12:33:22.100Z,202
2022-10-24T12:34:22.085Z,202
2022-10-24T12:35:30.630Z,158
2022-10-24T12:36:22.095Z,180
2022-10-24T12:37:22.107Z,180
2022-10-24T12:38:22.093Z,180
2022-10-24T12:39:22.145Z,180
2022-10-24T12:40:22.099Z,180
2022-10-24T12:41:22.093Z,158
2022-10-24T12:42:22.092Z,158
2022-10-24T12:43:22.102Z,135
2022-10-24T12:44:22.092Z,158
2022-10-24T12:45:22.108Z,158
2022-10-24T12:46:23.226Z,158
2022-10-24T12:47:22.102Z,158
2022-10-24T12:48:22.110Z,158
2022-10-24T12:49:23.212Z,112
2022-10-24T12:50:22.165Z,135
2022-10-24T12:51:22.133Z,135
2022-10-24T12:52:22.122Z,158
2022-10-24T12:53:22.101Z,158
2022-10-24T12:54:22.116Z,202
2022-10-24T12:55:22.119Z,202
2022-10-24T12:56:22.222Z,202
2022-10-24T12:57:22.133Z,202
2022-10-24T12:58:22.145Z,180
2022-10-24T12:59:22.110Z,180
2022-10-24T13:00:22.137Z,180
2022-10-24T13:01:22.241Z,180
2022-10-24T13:02:22.229Z,158
2022-10-24T13:03:22.106Z,158
2022-10-24T13:04:22.118Z,158
2022-10-24T13:05:22.133Z,158
2022-10-24T13:06:22.136Z,158
2022-10-24T13:07:22.143Z,158
2022-10-24T13:08:22.126Z,158
2022-10-24T13:09:22.136Z,158
2022-10-24T13:10:22.125Z,135
2022-10-24T13:11:22.157Z,158
2022-10-24T13:12:22.122Z,158
2022-10-24T13:13:22.120Z,158
2022-10-24T13:14:22.126Z,158
2022-10-24T13:15:22.137Z,158
2022-10-24T13:16:22.125Z,158
2022-10-24T13:17:22.129Z,158
2022-10-24T13:18:22.154Z,158
2022-10-24T13:19:22.190Z,158
2022-10-24T13:20:22.162Z,158
2022-10-24T13:21:22.187Z,158
2022-10-24T13:22:22.126Z,158
2022-10-24T13:23:22.172Z,158
2022-10-24T13:24:22.167Z,158
2022-10-24T13:25:22.159Z,158
2022-10-24T13:26:22.150Z,158
2022-10-24T13:27:22.150Z,158
2022-10-24T13:28:22.158Z,158
2022-10-24T13:29:22.150Z,158
2022-10-24T13:30:22.161Z,135
2022-10-24T13:31:22.168Z,135
2022-10-24T13:32:22.173Z,135
2022-10-24T13:33:22.168Z,158
2022-10-24T13:34:22.135Z,180
2022-10-24T13:35:22.201Z,135
2022-10-24T13:36:25.688Z,180
2022-10-24T13:37:22.166Z,180
2022-10-24T13:39:22.185Z,158
2022-10-24T13:40:22.170Z,158
2022-10-24T13:41:22.204Z,158
2022-10-24T13:42:22.158Z,158
2022-10-24T13:43:22.166Z,135
2022-10-24T13:44:22.168Z,158
2022-10-24T13:45:22.173Z,158
2022-10-24T13:46:22.186Z,180
2022-10-24T13:47:22.244Z,135
2022-10-24T13:48:22.207Z,202
2022-10-24T13:49:22.177Z,158
2022-10-24T13:50:22.161Z,158
2022-10-24T13:51:22.176Z,180
2022-10-24T13:52:22.179Z,158
2022-10-24T13:53:28.395Z,158
2022-10-24T13:54:22.151Z,158
2022-10-24T13:55:22.248Z,135
2022-10-24T13:56:22.164Z,158
2022-10-24T13:57:22.194Z,158
2022-10-24T13:58:22.169Z,135
2022-10-24T13:59:22.206Z,135